Time;durP1;ratioP1;P1;durP2;ratioP2;P2;SDS_P1;SDS_P2;PMS_P1;PMS_P2;Temp;Humidity;BMP_temperature;BMP_pressure;BME280_temperature;BME280_humidity;BME280_pressure;Samples;Min_cycle;Max_cycle;Signal;HPM_P1;HPM_P2
2022/03/27 00:00:24;;;;;;;23.02;13.95;;;;;;;;;;4979055;28;101817;-73
2022/03/27 00:02:51;;;;;;;20.50;12.35;;;;;;;;;;5013029;28;101236;-73
2022/03/27 00:05:18;;;;;;;19.08;11.35;;;;;;;;;;4977166;28;102900;-73
2022/03/27 00:07:45;;;;;;;21.83;12.55;;;;;;;;;;4995555;28;100842;-73
2022/03/27 00:10:12;;;;;;;19.60;11.85;;;;;;;;;;4978880;28;100522;-73
2022/03/27 00:12:38;;;;;;;16.95;9.88;;;;;;;;;;4979341;28;100103;-73
2022/03/27 00:15:06;;;;;;;20.15;13.13;;;;;;;;;;5013852;28;100149;-73
2022/03/27 00:17:34;;;;;;;21.95;13.80;;;;;;;;;;5011477;28;100209;-73
2022/03/27 00:20:04;;;;;;;18.65;11.93;;;;;;;;;;5013492;28;100514;-73
2022/03/27 00:22:31;;;;;;;22.38;12.40;;;;;;;;;;4979028;28;100139;-73
2022/03/27 00:24:58;;;;;;;22.75;11.90;;;;;;;;;;4979270;28;100179;-73
2022/03/27 00:27:25;;;;;;;22.98;12.48;;;;;;;;;;4962261;28;100222;-73
2022/03/27 00:29:52;;;;;;;23.58;13.48;;;;;;;;;;4975201;28;100730;-73
2022/03/27 00:32:20;;;;;;;23.73;12.65;;;;;;;;;;4994547;28;100005;-74
2022/03/27 00:34:48;;;;;;;20.80;11.63;;;;;;;;;;4995725;28;100081;-74
2022/03/27 00:37:15;;;;;;;19.55;12.00;;;;;;;;;;5013217;28;100179;-74
2022/03/27 00:39:42;;;;;;;17.90;10.98;;;;;;;;;;5013106;28;100577;-73
2022/03/27 00:42:08;;;;;;;21.42;11.70;;;;;;;;;;5013585;28;99837;-73
2022/03/27 00:44:36;;;;;;;21.73;13.93;;;;;;;;;;4963090;28;100026;-73
2022/03/27 00:47:04;;;;;;;23.73;14.00;;;;;;;;;;4978842;28;100167;-74
2022/03/27 00:49:35;;;;;;;23.45;13.40;;;;;;;;;;5013043;28;101401;-73
2022/03/27 00:52:02;;;;;;;22.55;13.60;;;;;;;;;;5013001;28;100137;-73
2022/03/27 00:54:29;;;;;;;20.35;11.63;;;;;;;;;;5013582;28;100054;-73
2022/03/27 00:56:56;;;;;;;22.83;12.60;;;;;;;;;;5032738;28;100305;-73
2022/03/27 00:59:22;;;;;;;21.13;12.13;;;;;;;;;;5032820;28;100534;-73
2022/03/27 01:01:49;;;;;;;22.38;13.82;;;;;;;;;;5015655;28;99963;-73
2022/03/27 01:04:16;;;;;;;24.55;15.68;;;;;;;;;;5014792;28;100071;-74
2022/03/27 01:06:43;;;;;;;19.50;11.82;;;;;;;;;;5032805;28;100440;-74
2022/03/27 01:12:23;;;;;;;24.70;14.52;;;;;;;;;;5033004;28;100024;-73
2022/03/27 01:14:51;;;;;;;20.15;13.60;;;;;;;;;;5033394;28;100003;-74
2022/03/27 01:17:20;;;;;;;21.48;12.48;;;;;;;;;;5031535;28;100402;-74
2022/03/27 01:19:51;;;;;;;22.10;13.18;;;;;;;;;;5014465;28;101142;-73
2022/03/27 01:22:18;;;;;;;23.02;13.43;;;;;;;;;;4999269;28;100114;-74
2022/03/27 01:24:46;;;;;;;25.35;15.75;;;;;;;;;;5016207;28;100928;-73
2022/03/27 01:27:13;;;;;;;25.48;12.10;;;;;;;;;;4977856;28;100349;-74
2022/03/27 01:29:39;;;;;;;19.77;11.93;;;;;;;;;;4992691;28;100529;-74
2022/03/27 01:32:11;;;;;;;21.45;13.13;;;;;;;;;;4992937;28;100036;-73
2022/03/27 01:34:38;;;;;;;21.48;13.50;;;;;;;;;;4963382;28;100233;-73
2022/03/27 01:37:08;;;;;;;22.55;13.07;;;;;;;;;;5011905;28;100290;-75
2022/03/27 01:39:36;;;;;;;23.83;13.38;;;;;;;;;;5012214;28;100600;-73
2022/03/27 01:42:05;;;;;;;22.20;13.27;;;;;;;;;;4991328;28;99989;-73
2022/03/27 01:44:31;;;;;;;21.13;13.20;;;;;;;;;;4997491;28;100122;-73
2022/03/27 01:46:59;;;;;;;23.85;14.75;;;;;;;;;;5011904;28;100371;-74
2022/03/27 01:49:26;;;;;;;23.65;13.63;;;;;;;;;;4993468;28;100099;-73
2022/03/27 01:51:53;;;;;;;21.75;12.63;;;;;;;;;;4975627;28;100023;-73
2022/03/27 01:54:22;;;;;;;25.27;13.30;;;;;;;;;;5027392;28;102241;-74
2022/03/27 01:56:49;;;;;;;24.33;14.70;;;;;;;;;;5031414;28;101617;-75
2022/03/27 01:59:16;;;;;;;22.52;13.30;;;;;;;;;;4998110;28;100597;-73
2022/03/27 02:01:43;;;;;;;29.38;15.65;;;;;;;;;;4997700;28;100102;-73
2022/03/27 02:04:11;;;;;;;23.42;14.60;;;;;;;;;;4994901;28;102897;-72
2022/03/27 02:06:37;;;;;;;23.70;15.88;;;;;;;;;;4977093;28;100233;-73
2022/03/27 02:09:04;;;;;;;29.13;15.48;;;;;;;;;;4973812;28;101244;-72
2022/03/27 02:11:32;;;;;;;23.75;16.25;;;;;;;;;;4991064;28;100111;-73
2022/03/27 02:13:58;;;;;;;25.95;17.23;;;;;;;;;;4978081;28;99997;-73
2022/03/27 02:16:25;;;;;;;24.63;16.02;;;;;;;;;;5011533;28;100306;-73
2022/03/27 02:18:52;;;;;;;27.88;17.73;;;;;;;;;;5011386;28;100616;-73
2022/03/27 02:21:19;;;;;;;25.42;15.40;;;;;;;;;;4994209;28;100192;-73
2022/03/27 02:23:46;;;;;;;25.17;16.33;;;;;;;;;;4994748;28;100058;-72
2022/03/27 02:26:13;;;;;;;26.45;15.90;;;;;;;;;;5011701;28;100326;-72
2022/03/27 02:28:40;;;;;;;26.27;15.50;;;;;;;;;;5011555;28;100683;-73
2022/03/27 02:31:08;;;;;;;27.50;17.60;;;;;;;;;;4993974;28;100086;-72
2022/03/27 02:33:36;;;;;;;24.48;16.58;;;;;;;;;;5011090;28;100176;-73
2022/03/27 02:36:06;;;;;;;24.65;14.57;;;;;;;;;;4993684;28;100365;-72
2022/03/27 02:38:34;;;;;;;27.42;15.45;;;;;;;;;;4990099;28;100613;-73
2022/03/27 02:41:01;;;;;;;24.58;13.82;;;;;;;;;;4975192;28;100154;-73
2022/03/27 02:43:27;;;;;;;27.13;17.08;;;;;;;;;;4973125;28;100114;-73
2022/03/27 02:45:55;;;;;;;31.23;16.33;;;;;;;;;;4994591;28;100343;-73
2022/03/27 02:48:22;;;;;;;26.48;15.55;;;;;;;;;;4995013;28;100585;-73
2022/03/27 02:50:48;;;;;;;24.20;14.55;;;;;;;;;;4948434;28;103915;-73
2022/03/27 02:53:15;;;;;;;26.63;17.65;;;;;;;;;;4993479;28;99996;-73
2022/03/27 02:55:42;;;;;;;26.17;14.80;;;;;;;;;;4976490;28;100474;-73
2022/03/27 02:58:09;;;;;;;26.95;15.80;;;;;;;;;;4994490;28;101190;-73
2022/03/27 03:00:36;;;;;;;28.35;14.88;;;;;;;;;;4994947;28;100188;-72
2022/03/27 03:03:03;;;;;;;24.73;14.82;;;;;;;;;;4999754;28;100189;-73
2022/03/27 03:05:30;;;;;;;21.42;11.68;;;;;;;;;;4996370;28;100512;-73
2022/03/27 03:07:57;;;;;;;25.95;15.02;;;;;;;;;;4979840;28;100678;-72
2022/03/27 03:10:25;;;;;;;30.48;15.70;;;;;;;;;;4994753;28;100104;-74
2022/03/27 03:12:51;;;;;;;29.35;17.17;;;;;;;;;;4997446;28;100094;-72
2022/03/27 03:15:18;;;;;;;24.92;13.32;;;;;;;;;;4979531;28;102173;-72
2022/03/27 03:17:45;;;;;;;16.95;8.50;;;;;;;;;;5013213;28;100728;-73
2022/03/27 03:20:12;;;;;;;16.92;9.52;;;;;;;;;;4999424;28;100079;-73
2022/03/27 03:22:40;;;;;;;16.20;8.68;;;;;;;;;;5016537;28;100141;-73
2022/03/27 03:25:08;;;;;;;11.85;6.43;;;;;;;;;;4999466;28;100337;-73
2022/03/27 03:27:36;;;;;;;10.10;6.10;;;;;;;;;;4999877;28;101067;-73
2022/03/27 03:30:06;;;;;;;10.07;6.03;;;;;;;;;;5000414;28;100020;-72
2022/03/27 03:32:34;;;;;;;14.73;7.60;;;;;;;;;;5034350;28;100006;-73
2022/03/27 03:35:01;;;;;;;9.82;5.55;;;;;;;;;;4998883;28;102447;-73
2022/03/27 03:37:28;;;;;;;12.15;6.75;;;;;;;;;;4999570;28;101679;-72
2022/03/27 03:39:55;;;;;;;12.98;6.50;;;;;;;;;;5016804;28;100126;-72
2022/03/27 03:42:22;;;;;;;11.48;6.35;;;;;;;;;;4999549;28;100100;-73
2022/03/27 03:44:49;;;;;;;10.48;5.40;;;;;;;;;;5033113;28;101541;-73
2022/03/27 03:47:16;;;;;;;10.80;5.10;;;;;;;;;;5016070;28;100639;-73
2022/03/27 03:49:42;;;;;;;13.07;6.05;;;;;;;;;;5015899;28;100115;-73
2022/03/27 03:52:09;;;;;;;14.90;5.57;;;;;;;;;;5016105;28;99978;-73
2022/03/27 03:54:36;;;;;;;8.93;4.50;;;;;;;;;;5015595;28;100416;-73
2022/03/27 03:57:04;;;;;;;10.27;5.10;;;;;;;;;;5033674;28;100569;-73
2022/03/27 03:59:33;;;;;;;10.48;5.20;;;;;;;;;;5034202;28;100031;-73
2022/03/27 04:02:00;;;;;;;9.43;4.50;;;;;;;;;;5004351;28;100163;-73
2022/03/27 04:04:27;;;;;;;9.23;4.50;;;;;;;;;;4978883;28;101254;-73
2022/03/27 04:06:54;;;;;;;12.35;5.32;;;;;;;;;;4995832;28;100584;-73
2022/03/27 04:09:21;;;;;;;9.25;4.75;;;;;;;;;;4995840;28;100172;-73
2022/03/27 04:11:49;;;;;;;14.95;5.43;;;;;;;;;;4996119;28;100017;-73
2022/03/27 04:14:16;;;;;;;10.70;4.60;;;;;;;;;;5013544;28;100337;-73
2022/03/27 04:16:42;;;;;;;12.15;4.32;;;;;;;;;;5013474;28;100566;-73
2022/03/27 04:19:09;;;;;;;7.50;3.67;;;;;;;;;;4992707;28;100098;-73
2022/03/27 04:21:36;;;;;;;8.75;4.65;;;;;;;;;;4994830;28;100078;-73
2022/03/27 04:24:03;;;;;;;9.93;3.88;;;;;;;;;;5013038;28;101393;-73
2022/03/27 04:26:31;;;;;;;7.38;3.45;;;;;;;;;;5013715;28;100561;-73
2022/03/27 04:28:58;;;;;;;7.15;3.78;;;;;;;;;;4995686;28;100132;-73
2022/03/27 04:31:25;;;;;;;8.85;4.93;;;;;;;;;;4996034;28;100136;-73
2022/03/27 04:33:52;;;;;;;9.55;4.50;;;;;;;;;;4972824;28;101480;-73
2022/03/27 04:36:19;;;;;;;10.23;4.75;;;;;;;;;;5012235;28;100581;-73
2022/03/27 04:38:46;;;;;;;9.10;4.45;;;;;;;;;;5012674;28;100178;-73
2022/03/27 04:41:13;;;;;;;9.52;4.15;;;;;;;;;;4978072;28;100284;-73
2022/03/27 04:43:39;;;;;;;9.80;4.85;;;;;;;;;;4993698;28;100894;-73
2022/03/27 04:46:07;;;;;;;10.60;5.50;;;;;;;;;;4977914;28;100540;-73
2022/03/27 04:48:34;;;;;;;13.75;5.43;;;;;;;;;;4994551;28;100206;-73
2022/03/27 04:51:01;;;;;;;9.60;5.13;;;;;;;;;;5012595;28;101203;-73
2022/03/27 04:53:28;;;;;;;12.45;5.15;;;;;;;;;;4977175;28;100483;-73
2022/03/27 04:55:55;;;;;;;9.65;4.47;;;;;;;;;;5011957;28;100650;-73
2022/03/27 04:58:22;;;;;;;7.57;4.50;;;;;;;;;;4993746;28;100153;-73
2022/03/27 05:00:49;;;;;;;12.70;5.00;;;;;;;;;;4994183;28;100110;-73
2022/03/27 05:03:16;;;;;;;14.35;4.80;;;;;;;;;;4990661;28;100401;-73
2022/03/27 05:05:44;;;;;;;12.50;4.53;;;;;;;;;;5005193;28;101401;-74
2022/03/27 05:08:10;;;;;;;8.75;3.83;;;;;;;;;;4978693;28;100113;-73
2022/03/27 05:10:38;;;;;;;14.45;5.18;;;;;;;;;;5012881;28;99958;-73
2022/03/27 05:13:07;;;;;;;9.60;4.28;;;;;;;;;;5012679;28;100177;-72
2022/03/27 05:15:34;;;;;;;9.52;5.30;;;;;;;;;;5011418;28;100720;-73
2022/03/27 05:18:01;;;;;;;10.80;4.55;;;;;;;;;;4995146;28;100236;-73
2022/03/27 05:20:29;;;;;;;8.48;4.60;;;;;;;;;;4978587;28;100611;-73
2022/03/27 05:22:56;;;;;;;10.55;4.70;;;;;;;;;;4993932;28;100311;-73
2022/03/27 05:25:23;;;;;;;8.85;4.68;;;;;;;;;;4994640;28;100523;-73
2022/03/27 05:27:53;;;;;;;13.13;5.03;;;;;;;;;;4978287;28;100233;-73
2022/03/27 05:30:25;;;;;;;8.40;4.63;;;;;;;;;;4978775;28;99965;-72
2022/03/27 05:32:53;;;;;;;11.02;4.03;;;;;;;;;;4994185;28;100467;-74
2022/03/27 05:35:20;;;;;;;10.80;4.80;;;;;;;;;;4994389;28;100102;-72
2022/03/27 05:37:47;;;;;;;10.68;4.15;;;;;;;;;;4994755;28;100172;-73
2022/03/27 05:40:17;;;;;;;10.75;3.90;;;;;;;;;;4978876;28;100144;-72
2022/03/27 05:42:44;;;;;;;11.63;5.28;;;;;;;;;;4974646;28;100325;-73
2022/03/27 05:45:11;;;;;;;12.75;4.90;;;;;;;;;;4991684;28;101754;-73
2022/03/27 05:47:38;;;;;;;9.63;4.45;;;;;;;;;;4990615;28;100164;-73
2022/03/27 05:50:05;;;;;;;10.48;4.15;;;;;;;;;;4990982;28;100218;-73
2022/03/27 05:52:32;;;;;;;8.48;4.13;;;;;;;;;;4974250;28;100382;-73
2022/03/27 05:54:59;;;;;;;8.40;3.90;;;;;;;;;;4991649;28;100744;-73
2022/03/27 05:57:25;;;;;;;8.35;4.03;;;;;;;;;;4992301;28;100114;-73
2022/03/27 05:59:52;;;;;;;9.25;3.80;;;;;;;;;;4958426;28;100249;-73
2022/03/27 06:02:19;;;;;;;6.82;3.28;;;;;;;;;;4991473;28;100244;-73
2022/03/27 06:04:46;;;;;;;7.05;3.13;;;;;;;;;;5010891;28;100823;-72
2022/03/27 06:07:13;;;;;;;6.32;2.67;;;;;;;;;;4992781;28;100074;-72
2022/03/27 06:09:40;;;;;;;11.15;3.83;;;;;;;;;;5011813;28;100085;-72
2022/03/27 06:12:07;;;;;;;8.80;3.60;;;;;;;;;;4993025;28;100348;-72
2022/03/27 06:14:34;;;;;;;7.55;3.30;;;;;;;;;;4993343;28;101253;-73
2022/03/27 06:17:01;;;;;;;11.00;3.75;;;;;;;;;;5017249;28;100727;-73
2022/03/27 06:19:30;;;;;;;9.13;3.95;;;;;;;;;;4999352;28;100138;-73
2022/03/27 06:21:59;;;;;;;11.23;3.88;;;;;;;;;;4943888;27;101168;-73
2022/03/27 06:24:26;;;;;;;10.02;4.10;;;;;;;;;;4960176;28;100811;-73
2022/03/27 06:26:53;;;;;;;10.48;4.30;;;;;;;;;;4943453;28;100078;-73
2022/03/27 06:29:21;;;;;;;10.52;4.35;;;;;;;;;;4976402;28;100206;-74
2022/03/27 06:31:51;;;;;;;9.25;5.18;;;;;;;;;;4976802;28;100489;-75
2022/03/27 06:34:19;;;;;;;9.40;5.55;;;;;;;;;;4958082;28;100588;-73
2022/03/27 06:36:46;;;;;;;9.95;4.40;;;;;;;;;;4958940;28;100114;-74
2022/03/27 06:39:13;;;;;;;9.00;4.43;;;;;;;;;;4943368;28;100148;-74
2022/03/27 06:41:40;;;;;;;9.63;5.13;;;;;;;;;;4976330;28;101823;-74
2022/03/27 06:44:08;;;;;;;11.18;5.45;;;;;;;;;;4976732;28;100535;-74
2022/03/27 06:46:35;;;;;;;10.73;5.30;;;;;;;;;;4976760;28;100238;-73
2022/03/27 06:49:02;;;;;;;11.77;5.97;;;;;;;;;;4942464;28;100069;-73
2022/03/27 06:51:29;;;;;;;11.38;5.35;;;;;;;;;;4958817;28;100243;-73
2022/03/27 06:53:56;;;;;;;10.75;4.57;;;;;;;;;;4976634;28;100653;-73
2022/03/27 06:56:22;;;;;;;11.68;4.38;;;;;;;;;;4927372;28;100138;-72
2022/03/27 06:58:50;;;;;;;11.35;5.30;;;;;;;;;;4959107;28;100146;-73
2022/03/27 07:04:16;;;;;;;13.32;6.20;;;;;;;;;;4951615;28;100587;-75
2022/03/27 07:06:43;;;;;;;20.75;9.90;;;;;;;;;;4976344;28;100111;-73
2022/03/27 07:09:10;;;;;;;12.45;5.55;;;;;;;;;;4976845;28;100116;-73
2022/03/27 07:11:37;;;;;;;9.75;4.63;;;;;;;;;;4976297;28;100272;-72
2022/03/27 07:14:04;;;;;;;12.63;5.10;;;;;;;;;;4957206;28;101454;-72
2022/03/27 07:16:31;;;;;;;9.35;4.18;;;;;;;;;;4958540;28;100719;-74
2022/03/27 07:18:58;;;;;;;8.48;4.75;;;;;;;;;;4958470;28;100101;-73
2022/03/27 07:21:28;;;;;;;7.53;4.00;;;;;;;;;;4976051;28;100115;-73
2022/03/27 07:23:55;;;;;;;6.70;2.70;;;;;;;;;;4976045;28;100608;-74
2022/03/27 07:26:22;;;;;;;6.38;3.25;;;;;;;;;;4958693;28;101901;-74
2022/03/27 07:28:49;;;;;;;8.02;3.15;;;;;;;;;;4972552;28;100195;-73
2022/03/27 07:31:16;;;;;;;7.75;2.88;;;;;;;;;;4938785;28;100320;-73
2022/03/27 07:33:43;;;;;;;6.32;2.35;;;;;;;;;;4954752;28;100968;-72
2022/03/27 07:36:10;;;;;;;5.97;3.17;;;;;;;;;;4972935;28;100131;-72
2022/03/27 07:38:37;;;;;;;6.97;3.20;;;;;;;;;;4939768;28;100406;-74
2022/03/27 07:41:04;;;;;;;6.97;2.58;;;;;;;;;;4972052;28;100936;-73
2022/03/27 07:43:32;;;;;;;12.00;5.70;;;;;;;;;;4936275;28;100696;-73
2022/03/27 07:45:59;;;;;;;10.25;5.80;;;;;;;;;;4972683;28;100197;-73
2022/03/27 07:48:26;;;;;;;6.25;3.25;;;;;;;;;;4972565;28;100915;-73
2022/03/27 07:50:56;;;;;;;7.20;2.85;;;;;;;;;;4971217;28;101825;-73
2022/03/27 07:53:22;;;;;;;8.48;3.55;;;;;;;;;;4971832;28;101724;-72
2022/03/27 07:55:49;;;;;;;6.75;2.85;;;;;;;;;;4972881;28;100145;-74
2022/03/27 07:58:17;;;;;;;7.13;2.97;;;;;;;;;;4923094;28;100176;-72
2022/03/27 08:00:44;;;;;;;6.25;2.67;;;;;;;;;;4953665;28;100539;-73
2022/03/27 08:03:11;;;;;;;3.53;2.60;;;;;;;;;;4952877;28;101259;-73
2022/03/27 08:05:38;;;;;;;7.68;2.53;;;;;;;;;;4938854;28;100282;-73
2022/03/27 08:08:05;;;;;;;6.05;2.83;;;;;;;;;;4956093;28;100186;-73
2022/03/27 08:10:32;;;;;;;7.07;1.98;;;;;;;;;;4972611;28;100382;-72
2022/03/27 08:12:59;;;;;;;5.80;2.15;;;;;;;;;;4972253;28;100593;-73
2022/03/27 08:15:26;;;;;;;6.93;2.92;;;;;;;;;;4938726;28;100159;-72
2022/03/27 08:17:54;;;;;;;5.10;2.10;;;;;;;;;;4939288;28;100120;-72
2022/03/27 08:20:25;;;;;;;6.07;2.50;;;;;;;;;;4955169;28;103618;-73
2022/03/27 08:22:53;;;;;;;6.53;2.55;;;;;;;;;;4954960;28;101154;-72
2022/03/27 08:28:10;;;;;;;6.80;2.70;;;;;;;;;;4972005;28;100122;-72
2022/03/27 08:30:37;;;;;;;5.53;2.28;;;;;;;;;;4954937;28;100410;-72
2022/03/27 08:33:04;;;;;;;4.80;2.45;;;;;;;;;;4972481;28;100701;-72
2022/03/27 08:35:31;;;;;;;4.80;2.67;;;;;;;;;;4972419;28;101543;-72
2022/03/27 08:37:58;;;;;;;5.10;2.35;;;;;;;;;;4939253;28;100152;-73
2022/03/27 08:40:25;;;;;;;6.35;2.00;;;;;;;;;;4954052;28;100324;-73
2022/03/27 08:42:51;;;;;;;3.38;1.60;;;;;;;;;;4971885;28;100684;-73
2022/03/27 08:45:19;;;;;;;5.53;1.92;;;;;;;;;;4951273;28;100889;-73
2022/03/27 08:47:47;;;;;;;5.95;1.95;;;;;;;;;;4973257;28;100012;-73
2022/03/27 08:50:14;;;;;;;4.95;1.92;;;;;;;;;;4955782;28;100655;-73
2022/03/27 08:52:57;;;;;;;4.05;1.60;;;;;;;;;;4972279;28;101188;-73
2022/03/27 08:55:43;;;;;;;4.40;1.80;;;;;;;;;;4939078;28;101033;-73
2022/03/27 08:58:11;;;;;;;4.93;2.10;;;;;;;;;;4955543;28;100195;-73
2022/03/27 09:00:38;;;;;;;3.38;1.42;;;;;;;;;;4955329;28;100454;-73
2022/03/27 09:03:05;;;;;;;3.67;1.45;;;;;;;;;;4950527;28;100788;-73
2022/03/27 09:05:34;;;;;;;4.80;1.58;;;;;;;;;;4950983;28;100168;-73
2022/03/27 09:08:05;;;;;;;4.38;1.75;;;;;;;;;;4952020;28;100139;-73
2022/03/27 09:10:32;;;;;;;3.67;1.20;;;;;;;;;;4951494;28;100612;-72
2022/03/27 09:12:58;;;;;;;3.67;1.38;;;;;;;;;;4951379;28;100955;-72
2022/03/27 09:15:28;;;;;;;4.15;1.70;;;;;;;;;;4952143;28;100072;-72
2022/03/27 09:18:01;;;;;;;3.08;1.15;;;;;;;;;;4953294;28;100277;-72
2022/03/27 09:20:36;;;;;;;3.03;1.40;;;;;;;;;;4951697;28;103191;-73
2022/03/27 09:23:12;;;;;;;;;;;;;;;;;;4953860;28;102212;-72
2022/03/27 09:26:01;;;;;;;3.40;1.17;;;;;;;;;;4953711;28;100139;-72
2022/03/27 09:28:36;;;;;;;5.10;1.30;;;;;;;;;;4953189;28;100061;-73
2022/03/27 09:31:21;;;;;;;2.47;1.20;;;;;;;;;;4951017;28;100316;-73
2022/03/27 09:33:49;;;;;;;3.88;1.40;;;;;;;;;;4952116;28;101910;-74
2022/03/27 09:36:23;;;;;;;8.50;3.58;;;;;;;;;;4952725;28;100024;-72
2022/03/27 09:39:11;;;;;;;8.60;2.45;;;;;;;;;;4953815;28;100233;-72
2022/03/27 09:41:54;;;;;;;5.63;1.85;;;;;;;;;;4951422;28;100235;-73
2022/03/27 09:44:34;;;;;;;4.93;1.73;;;;;;;;;;4955457;28;101347;-72
2022/03/27 09:47:02;;;;;;;5.20;1.58;;;;;;;;;;4922150;28;100207;-72
2022/03/27 09:49:32;;;;;;;5.93;2.60;;;;;;;;;;4956617;28;100009;-72
2022/03/27 09:52:11;;;;;;;3.92;1.77;;;;;;;;;;4951919;28;100362;-72
2022/03/27 09:54:47;;;;;;;3.47;1.40;;;;;;;;;;4950993;28;102046;-72
2022/03/27 09:57:21;;;;;;;5.93;2.30;;;;;;;;;;4951999;28;100148;-73
2022/03/27 09:59:48;;;;;;;5.38;1.88;;;;;;;;;;4951643;28;100123;-72
2022/03/27 10:02:25;;;;;;;3.30;1.45;;;;;;;;;;4950982;28;100398;-72
2022/03/27 10:05:09;;;;;;;7.63;2.60;;;;;;;;;;4935051;28;100570;-72
2022/03/27 10:07:44;;;;;;;3.60;1.40;;;;;;;;;;4935805;28;100087;-72
2022/03/27 10:10:13;;;;;;;4.25;1.45;;;;;;;;;;4951462;28;100163;-72
2022/03/27 10:12:41;;;;;;;4.05;1.30;;;;;;;;;;4935021;28;100371;-72
2022/03/27 10:15:13;;;;;;;3.67;1.33;;;;;;;;;;4952211;28;100811;-72
2022/03/27 10:17:43;;;;;;;2.90;1.00;;;;;;;;;;4951090;28;100241;-72
2022/03/27 10:20:14;;;;;;;3.50;1.10;;;;;;;;;;4935448;28;100075;-72
2022/03/27 10:22:49;;;;;;;2.78;1.13;;;;;;;;;;4947281;28;100347;-72
2022/03/27 10:25:16;;;;;;;;;;;;;;;;;;4947851;28;100655;-72
2022/03/27 10:27:46;;;;;;;1.80;0.85;;;;;;;;;;4951285;28;100364;-72
2022/03/27 10:30:15;;;;;;;4.25;1.13;;;;;;;;;;4935508;28;100095;-72
2022/03/27 10:32:43;;;;;;;3.25;1.10;;;;;;;;;;4946598;28;100448;-72
2022/03/27 10:35:46;;;;;;;3.10;0.90;;;;;;;;;;4950176;28;101149;-73
2022/03/27 10:38:51;;;;;;;4.15;1.13;;;;;;;;;;4952267;28;100133;-71
2022/03/27 10:41:37;;;;;;;3.03;0.95;;;;;;;;;;4952612;28;101159;-72
2022/03/27 10:44:28;;;;;;;5.10;1.50;;;;;;;;;;4950457;28;100267;-73
2022/03/27 10:47:15;;;;;;;3.90;0.90;;;;;;;;;;4951686;28;100576;-72
2022/03/27 10:49:43;;;;;;;4.38;1.40;;;;;;;;;;4934213;28;100236;-72
2022/03/27 10:52:10;;;;;;;2.95;1.27;;;;;;;;;;4952224;28;99976;-72
2022/03/27 10:55:02;;;;;;;3.42;1.00;;;;;;;;;;4951033;28;101626;-72
2022/03/27 10:57:32;;;;;;;3.33;1.30;;;;;;;;;;4951269;28;100730;-72
2022/03/27 10:59:59;;;;;;;3.92;1.00;;;;;;;;;;4951532;28;100636;-72
2022/03/27 11:02:41;;;;;;;2.40;1.05;;;;;;;;;;4951708;28;100177;-74
2022/03/27 11:05:08;;;;;;;5.47;2.05;;;;;;;;;;4972720;28;100381;-73
2022/03/27 11:07:35;;;;;;;2.80;1.00;;;;;;;;;;4957435;28;100675;-72
2022/03/27 11:10:03;;;;;;;3.15;1.08;;;;;;;;;;4973371;28;100199;-72
2022/03/27 11:12:31;;;;;;;4.35;1.00;;;;;;;;;;4957271;28;100025;-72
2022/03/27 11:15:02;;;;;;;2.47;0.93;;;;;;;;;;4973482;28;100805;-71
2022/03/27 11:17:42;;;;;;;3.25;1.00;;;;;;;;;;4957021;28;100539;-72
2022/03/27 11:20:32;;;;;;;2.90;1.15;;;;;;;;;;4941212;28;100069;-72
2022/03/27 11:23:00;;;;;;;2.25;1.00;;;;;;;;;;4974599;28;100016;-72
2022/03/27 11:25:34;;;;;;;2.45;0.93;;;;;;;;;;4973998;28;100360;-73
2022/03/27 11:28:05;;;;;;;3.63;1.08;;;;;;;;;;4956497;28;100628;-71
2022/03/27 11:30:40;;;;;;;4.57;1.10;;;;;;;;;;4974707;28;100039;-72
2022/03/27 11:33:18;;;;;;;3.38;1.17;;;;;;;;;;4974653;28;100101;-72
2022/03/27 11:36:11;;;;;;;2.60;1.00;;;;;;;;;;4972346;28;100682;-70
2022/03/27 11:39:02;;;;;;;2.88;1.00;;;;;;;;;;4973692;28;100639;-71
2022/03/27 11:41:44;;;;;;;3.67;1.20;;;;;;;;;;4971837;28;101421;-72
2022/03/27 11:47:22;;;;;;;2.95;1.10;;;;;;;;;;4973744;28;100240;-72
2022/03/27 11:49:50;;;;;;;3.00;0.73;;;;;;;;;;4941026;28;101866;-72
2022/03/27 11:52:18;;;;;;;3.33;1.10;;;;;;;;;;4973807;28;103868;-73
2022/03/27 11:55:09;;;;;;;3.10;1.17;;;;;;;;;;4940622;28;101517;-73
2022/03/27 11:57:56;;;;;;;3.88;1.23;;;;;;;;;;4973452;28;100306;-71
2022/03/27 12:00:48;;;;;;;4.15;1.33;;;;;;;;;;4973832;28;100610;-71
2022/03/27 12:03:18;;;;;;;2.42;0.90;;;;;;;;;;4952779;28;100270;-71
2022/03/27 12:05:45;;;;;;;1.92;1.05;;;;;;;;;;4956710;28;100152;-73
2022/03/27 12:08:17;;;;;;;2.50;1.15;;;;;;;;;;4955387;28;100477;-71
2022/03/27 12:10:46;;;;;;;2.58;1.10;;;;;;;;;;4956537;28;100752;-71
2022/03/27 12:13:14;;;;;;;4.00;1.40;;;;;;;;;;4972150;28;100131;-71
2022/03/27 12:15:52;;;;;;;3.10;1.20;;;;;;;;;;4973707;28;99986;-71
2022/03/27 12:18:29;;;;;;;3.00;1.13;;;;;;;;;;4973158;28;100376;-71
2022/03/27 12:20:56;;;;;;;3.92;1.25;;;;;;;;;;4955906;28;100651;-71
2022/03/27 12:23:25;;;;;;;5.57;1.40;;;;;;;;;;4939665;28;100386;-71
2022/03/27 12:31:52;;;;;;;4.00;1.30;;;;;;;;;;4943365;28;102169;-72
2022/03/27 12:34:20;;;;;;;3.03;0.95;;;;;;;;;;4972285;28;100131;-72
2022/03/27 12:37:16;;;;;;;4.57;1.30;;;;;;;;;;4956445;28;100015;-72
2022/03/27 12:39:49;;;;;;;3.20;1.30;;;;;;;;;;4973001;28;100307;-72
2022/03/27 12:42:39;;;;;;;2.40;1.02;;;;;;;;;;4955375;28;103102;-72
2022/03/27 12:45:09;;;;;;;3.53;1.13;;;;;;;;;;4973153;28;99820;-72
2022/03/27 12:47:39;;;;;;;3.20;1.27;;;;;;;;;;4973760;28;100072;-72
2022/03/27 12:50:07;;;;;;;2.28;1.00;;;;;;;;;;4953758;28;101530;-72
2022/03/27 12:52:53;;;;;;;1.88;0.98;;;;;;;;;;4956447;28;100601;-72
2022/03/27 12:55:20;;;;;;;3.42;0.93;;;;;;;;;;4941105;28;100099;-72
2022/03/27 12:58:00;;;;;;;3.65;1.25;;;;;;;;;;4971552;28;100185;-72
2022/03/27 13:00:29;;;;;;;3.72;1.08;;;;;;;;;;4971534;28;100821;-72
2022/03/27 13:03:24;;;;;;;2.13;1.00;;;;;;;;;;4955178;28;100835;-72
2022/03/27 13:05:56;;;;;;;;;;;;;;;;;;4972097;28;101356;-72
2022/03/27 13:08:31;;;;;;;2.72;0.70;;;;;;;;;;4973114;28;101006;-73
2022/03/27 13:11:08;;;;;;;4.32;1.10;;;;;;;;;;4972758;28;100895;-72
2022/03/27 13:13:42;;;;;;;3.00;1.15;;;;;;;;;;4939432;28;102091;-72
2022/03/27 13:16:28;;;;;;;;;;;;;;;;;;4968117;28;100009;-72
2022/03/27 13:18:56;;;;;;;3.45;1.20;;;;;;;;;;4973115;28;100041;-72
2022/03/27 13:21:23;;;;;;;2.78;1.48;;;;;;;;;;4971387;28;100493;-72
2022/03/27 13:23:50;;;;;;;3.00;1.30;;;;;;;;;;4972705;28;100595;-71
2022/03/27 13:26:17;;;;;;;5.78;1.17;;;;;;;;;;4971075;28;100066;-71
2022/03/27 13:28:44;;;;;;;2.58;1.15;;;;;;;;;;4955405;28;100231;-72
2022/03/27 13:31:11;;;;;;;3.50;1.20;;;;;;;;;;4972517;28;100235;-71
2022/03/27 13:33:38;;;;;;;4.28;1.33;;;;;;;;;;4954539;28;100695;-72
2022/03/27 13:36:05;;;;;;;3.38;1.25;;;;;;;;;;4939104;28;100197;-71
2022/03/27 13:38:32;;;;;;;4.45;1.50;;;;;;;;;;4972679;28;99944;-71
2022/03/27 13:43:44;;;;;;;5.93;1.85;;;;;;;;;;4957617;28;100709;-71
2022/03/27 13:46:11;;;;;;;4.30;1.50;;;;;;;;;;4972558;28;100652;-71
2022/03/27 13:48:38;;;;;;;4.65;1.70;;;;;;;;;;4972075;28;100195;-72
2022/03/27 13:51:04;;;;;;;3.88;1.55;;;;;;;;;;4971686;28;100226;-72
2022/03/27 13:53:31;;;;;;;4.68;1.63;;;;;;;;;;4972273;28;100618;-71
2022/03/27 13:56:00;;;;;;;5.28;1.63;;;;;;;;;;4954369;28;100171;-71
2022/03/27 13:58:27;;;;;;;3.60;1.67;;;;;;;;;;4936921;28;100135;-72
2022/03/27 14:00:58;;;;;;;4.45;1.60;;;;;;;;;;4954158;28;100458;-71
2022/03/27 14:03:28;;;;;;;2.67;1.23;;;;;;;;;;4949863;28;100640;-71
2022/03/27 14:05:57;;;;;;;4.63;1.98;;;;;;;;;;4949491;28;100315;-71
2022/03/27 14:08:24;;;;;;;4.80;1.50;;;;;;;;;;4934769;28;100774;-72
2022/03/27 14:10:52;;;;;;;3.33;1.45;;;;;;;;;;4949537;28;101000;-72
2022/03/27 14:13:19;;;;;;;4.20;1.35;;;;;;;;;;4949772;28;100670;-73
2022/03/27 14:15:46;;;;;;;5.05;1.25;;;;;;;;;;4951449;28;100096;-73
2022/03/27 14:18:13;;;;;;;5.07;1.75;;;;;;;;;;4951803;28;100294;-71
2022/03/27 14:20:41;;;;;;;5.47;1.98;;;;;;;;;;4966055;28;100250;-72
2022/03/27 14:23:08;;;;;;;4.60;1.65;;;;;;;;;;4950060;28;100668;-72
2022/03/27 14:25:35;;;;;;;3.80;1.27;;;;;;;;;;4951611;28;100159;-72
2022/03/27 14:28:02;;;;;;;4.75;1.70;;;;;;;;;;4950101;28;100189;-73
2022/03/27 14:30:30;;;;;;;4.63;1.70;;;;;;;;;;4932804;28;100354;-72
2022/03/27 14:32:58;;;;;;;3.90;1.60;;;;;;;;;;4951527;28;100746;-72
2022/03/27 14:35:25;;;;;;;3.25;1.70;;;;;;;;;;4951134;28;100159;-72
2022/03/27 14:37:51;;;;;;;4.18;1.67;;;;;;;;;;4952320;28;100305;-73
2022/03/27 14:40:18;;;;;;;5.45;2.15;;;;;;;;;;4952648;28;101559;-72
2022/03/27 14:42:45;;;;;;;3.83;1.23;;;;;;;;;;4953063;28;100652;-72
2022/03/27 14:45:15;;;;;;;3.22;1.50;;;;;;;;;;4937165;28;100286;-72
2022/03/27 14:47:41;;;;;;;3.75;1.33;;;;;;;;;;4953640;28;100213;-72
2022/03/27 14:50:13;;;;;;;4.35;1.55;;;;;;;;;;4952799;28;100337;-72
2022/03/27 14:52:41;;;;;;;4.43;1.70;;;;;;;;;;4954451;28;100834;-72
2022/03/27 14:57:54;;;;;;;6.25;1.83;;;;;;;;;;4955855;28;100186;-72
2022/03/27 15:00:22;;;;;;;8.00;1.90;;;;;;;;;;4955157;28;100385;-71